Anna-meta — A8XN3 — position and weather

sailwx.info

Track history (hours):
 
Tides and Currents Weather Stations Pressure Air Temp Water Temp Dewpoint Dewpoint Depression Visibility Wind Speed Wind Dir Waves Ship Positions

Anna-meta

Last reported at 2017-Nov-19 20:40 UTC. Time now 2017-Dec-16 09:14 UTC.
Position N 34°31' E 134°42'.
Warning: this ship's position is 26 days out of date.

Length 190 m; draft 12.4 m.

Type: Cargo ship. MMSI: 636092143.

Date/timePositionNaut miles runAvg speedWind from/ knotsBaromVisibWave heightAir tempDewpointWater temp
2017-Nov-19 20:40N 34°31' E 134°42'411.5
2017-Nov-19 20:17N 34°33' E 134°47'311.1
2017-Nov-19 20:00N 34°34' E 134°50'510.0
2017-Nov-19 19:30N 34°36' E 134°56'5 8.6
2017-Nov-19 18:58N 34°37' E 135°01'3 6.4
2017-Nov-19 18:30N 34°36' E 135°04'4 8.3
2017-Nov-19 18:00N 34°35' E 135°09'3 4.5
2017-Nov-19 17:27N 34°34' E 135°12'0 0.2
2017-Nov-19 16:57N 34°34' E 135°12'0 0.0
2017-Nov-19 16:27N 34°34' E 135°12'0 0.0
2017-Nov-19 15:57N 34°34' E 135°12'0 0.1
2017-Nov-19 15:27N 34°34' E 135°12'0 0.1
2017-Nov-19 14:57N 34°34' E 135°12'0 0.0
2017-Nov-19 14:27N 34°34' E 135°12'0 0.1
2017-Nov-19 13:45N 34°34' E 135°12'0 0.2
2017-Nov-19 13:27N 34°34' E 135°12'0 0.0
2017-Nov-19 12:57N 34°34' E 135°12'0 0.1
2017-Nov-19 12:27N 34°34' E 135°12'0 0.0
2017-Nov-19 11:57N 34°34' E 135°12'0 0.1
2017-Nov-19 11:27N 34°34' E 135°12'0 0.0
2017-Nov-19 10:57N 34°34' E 135°12'0 0.0
2017-Nov-19 10:21N 34°34' E 135°12'0 0.0
2017-Nov-19 09:51N 34°34' E 135°12'0 0.0
2017-Nov-19 09:21N 34°34' E 135°12'0 0.0
2017-Nov-19 08:57N 34°34' E 135°12'0 0.2
2017-Nov-19 08:28N 34°34' E 135°12'1 1.8
2017-Nov-19 08:00N 34°34' E 135°11'4 7.3
2017-Nov-19 07:30N 34°31' E 135°08'510.2
2017-Nov-19 06:59N 34°27' E 135°05'510.4
2017-Nov-19 06:30N 34°22' E 135°02'5 9.7
2017-Nov-19 06:00N 34°18' E 134°60'4 8.6
2017-Nov-19 05:30N 34°14' E 134°60'4 8.4
2017-Nov-19 05:00N 34°09' E 134°60'510.0
2017-Nov-19 04:30N 34°04' E 135°00'710.8
2017-Nov-19 03:54N 33°58' E 134°60'  
Track history (hours):
 
Tides and Currents Weather Stations Pressure Air Temp Water Temp Dewpoint Dewpoint Depression Visibility Wind Speed Wind Dir Waves Ship Positions

Anna-meta

Last reported at 2017-Nov-19 20:40 UTC. Time now 2017-Dec-16 09:14 UTC.
Position N 34°31' E 134°42'.
Warning: this ship's position is 26 days out of date.

Length 190 m; draft 12.4 m.

Type: Cargo ship. MMSI: 636092143.

Date/timePositionNaut miles runAvg speedWind from/ knotsBaromVisibWave heightAir tempDewpointWater temp
2017-Nov-19 20:40N 34°31' E 134°42'411.5
2017-Nov-19 20:17N 34°33' E 134°47'311.1
2017-Nov-19 20:00N 34°34' E 134°50'510.0
2017-Nov-19 19:30N 34°36' E 134°56'5 8.6
2017-Nov-19 18:58N 34°37' E 135°01'3 6.4
2017-Nov-19 18:30N 34°36' E 135°04'4 8.3
2017-Nov-19 18:00N 34°35' E 135°09'3 4.5
2017-Nov-19 17:27N 34°34' E 135°12'0 0.2
2017-Nov-19 16:57N 34°34' E 135°12'0 0.0
2017-Nov-19 16:27N 34°34' E 135°12'0 0.0
2017-Nov-19 15:57N 34°34' E 135°12'0 0.1
2017-Nov-19 15:27N 34°34' E 135°12'0 0.1
2017-Nov-19 14:57N 34°34' E 135°12'0 0.0
2017-Nov-19 14:27N 34°34' E 135°12'0 0.1
2017-Nov-19 13:45N 34°34' E 135°12'0 0.2
2017-Nov-19 13:27N 34°34' E 135°12'0 0.0
2017-Nov-19 12:57N 34°34' E 135°12'0 0.1
2017-Nov-19 12:27N 34°34' E 135°12'0 0.0
2017-Nov-19 11:57N 34°34' E 135°12'0 0.1
2017-Nov-19 11:27N 34°34' E 135°12'0 0.0
2017-Nov-19 10:57N 34°34' E 135°12'0 0.0
2017-Nov-19 10:21N 34°34' E 135°12'0 0.0
2017-Nov-19 09:51N 34°34' E 135°12'0 0.0
2017-Nov-19 09:21N 34°34' E 135°12'0 0.0
2017-Nov-19 08:57N 34°34' E 135°12'0 0.2
2017-Nov-19 08:28N 34°34' E 135°12'1 1.8
2017-Nov-19 08:00N 34°34' E 135°11'4 7.3
2017-Nov-19 07:30N 34°31' E 135°08'510.2
2017-Nov-19 06:59N 34°27' E 135°05'510.4
2017-Nov-19 06:30N 34°22' E 135°02'5 9.7
2017-Nov-19 06:00N 34°18' E 134°60'4 8.6
2017-Nov-19 05:30N 34°14' E 134°60'4 8.4
2017-Nov-19 05:00N 34°09' E 134°60'510.0
2017-Nov-19 04:30N 34°04' E 135°00'710.8
2017-Nov-19 03:54N 33°58' E 134°60'  

Dump ship's entire track history